Fibre, Michigan
Current Conditions -  °F | °C
As of 4:15 AM on Saturday 22 Nov 2014 (Local Time) from KCIU Reporting Station
Overcast Overcast  
Wind Chill: 25°   Ceiling: 1700
Heat Index: 34°   Visibility: 10mi
Dew Point: 30°   Wind: 13mph
Humidity: 87%   Direction: 210°SSW
Pressure: 29.87"   Gusts: 20mph
Location:  46.1892°N, 84.6083°W
Report Text: KCIU 220915Z AUTO 21011G17KT 180V240 10SM OVC017 01/M01 A2987 RMK AO1
Loading
Personal Weather Stations






























Interactive Weather Map New forecast layout! Learn more

10-Day Weather Forecast

Advertisements
Track Severe Weather on mobile